sensor_id;sensor_type;location;lat;lon;timestamp;P1;durP1;ratioP1;P2;durP2;ratioP2
15557;SDS011;7880;50.110;9.372;2023-11-25T00:04:36;1.3000000000000003;;;0.5999999999999999;;
15557;SDS011;7880;50.110;9.372;2023-11-25T00:09:36;2.8230769230769233;;;0.5999999999999999;;
15557;SDS011;7880;50.110;9.372;2023-11-25T00:14:39;0.29999999999999993;;;0.29999999999999993;;
15557;SDS011;7880;50.110;9.372;2023-11-25T00:19:47;1.0999999999999999;;;0.4;;
15557;SDS011;7880;50.110;9.372;2023-11-25T00:24:47;0.9615384615384617;;;0.5;;
15557;SDS011;7880;50.110;9.372;2023-11-25T00:30:06;1.4615384615384612;;;0.5999999999999999;;
15557;SDS011;7880;50.110;9.372;2023-11-25T00:34:55;0.5;;;0.29999999999999993;;
15557;SDS011;7880;50.110;9.372;2023-11-25T00:38:35;3.6923076923076934;;;0.9000000000000002;;
15557;SDS011;7880;50.110;9.372;2023-11-25T00:43:46;0.9153846153846151;;;0.5999999999999999;;
15557;SDS011;7880;50.110;9.372;2023-11-25T00:48:43;4.423076923076922;;;0.9000000000000002;;
15557;SDS011;7880;50.110;9.372;2023-11-25T00:53:44;2.161538461538462;;;0.8384615384615385;;
15557;SDS011;7880;50.110;9.372;2023-11-25T00:58:47;5.346153846153845;;;1.0;;
15557;SDS011;7880;50.110;9.372;2023-11-25T01:03:50;0.7384615384615387;;;0.6384615384615384;;
15557;SDS011;7880;50.110;9.372;2023-11-25T01:08:53;1.5;;;0.5;;
15557;SDS011;7880;50.110;9.372;2023-11-25T01:13:55;2.8230769230769233;;;0.5999999999999999;;
15557;SDS011;7880;50.110;9.372;2023-11-25T01:18:58;2.6384615384615384;;;0.7;;
15557;SDS011;7880;50.110;9.372;2023-11-25T01:24:03;1.4;;;0.5384615384615383;;
15557;SDS011;7880;50.110;9.372;2023-11-25T01:29:07;0.5999999999999999;;;0.43076923076923074;;
15557;SDS011;7880;50.110;9.372;2023-11-25T01:34:09;2.2923076923076926;;;0.5999999999999999;;
15557;SDS011;7880;50.110;9.372;2023-11-25T01:39:14;2.0615384615384618;;;0.6384615384615384;;
15557;SDS011;7880;50.110;9.372;2023-11-25T01:44:18;1.0;;;0.5;;
15557;SDS011;7880;50.110;9.372;2023-11-25T01:49:25;2.161538461538462;;;0.7;;
15557;SDS011;7880;50.110;9.372;2023-11-25T01:54:25;2.7615384615384624;;;0.9000000000000002;;
15557;SDS011;7880;50.110;9.372;2023-11-25T01:59:31;2.130769230769231;;;0.6384615384615384;;
15557;SDS011;7880;50.110;9.372;2023-11-25T02:04:33;1.5615384615384613;;;0.5999999999999999;;
15557;SDS011;7880;50.110;9.372;2023-11-25T02:09:34;1.0999999999999999;;;0.7;;
15557;SDS011;7880;50.110;9.372;2023-11-25T02:14:42;1.1999999999999997;;;1.0615384615384615;;
15557;SDS011;7880;50.110;9.372;2023-11-25T02:20:02;5.453846153846154;;;0.8461538461538461;;
15557;SDS011;7880;50.110;9.372;2023-11-25T02:24:48;1.4153846153846152;;;0.6615384615384615;;
15557;SDS011;7880;50.110;9.372;2023-11-25T02:29:53;2.0615384615384618;;;0.5;;
15557;SDS011;7880;50.110;9.372;2023-11-25T02:34:51;6.984615384615385;;;1.0;;
15557;SDS011;7880;50.110;9.372;2023-11-25T02:39:54;1.0999999999999999;;;0.5999999999999999;;
15557;SDS011;7880;50.110;9.372;2023-11-25T02:44:57;7.246153846153845;;;0.9000000000000002;;
15557;SDS011;7880;50.110;9.372;2023-11-25T02:50:00;4.161538461538462;;;0.9000000000000002;;
15557;SDS011;7880;50.110;9.372;2023-11-25T02:55:05;5.6230769230769235;;;1.1999999999999997;;
15557;SDS011;7880;50.110;9.372;2023-11-25T03:00:16;3.523076923076923;;;1.0;;
15557;SDS011;7880;50.110;9.372;2023-11-25T03:05:14;5.215384615384616;;;1.1999999999999997;;
15557;SDS011;7880;50.110;9.372;2023-11-25T03:10:17;5.515384615384615;;;0.8;;
15557;SDS011;7880;50.110;9.372;2023-11-25T03:15:16;4.384615384615386;;;0.8615384615384619;;
15557;SDS011;7880;50.110;9.372;2023-11-25T03:20:21;4.484615384615384;;;0.9000000000000002;;
15557;SDS011;7880;50.110;9.372;2023-11-25T03:25:25;5.238461538461538;;;1.0999999999999999;;
15557;SDS011;7880;50.110;9.372;2023-11-25T03:30:26;5.684615384615384;;;0.8384615384615385;;
15557;SDS011;7880;50.110;9.372;2023-11-25T03:35:33;3.038461538461539;;;1.3000000000000003;;
15557;SDS011;7880;50.110;9.372;2023-11-25T03:40:32;3.661538461538462;;;1.0999999999999999;;
15557;SDS011;7880;50.110;9.372;2023-11-25T03:45:37;6.13076923076923;;;0.7384615384615387;;
15557;SDS011;7880;50.110;9.372;2023-11-25T03:50:40;7.438461538461538;;;1.0;;
15557;SDS011;7880;50.110;9.372;2023-11-25T03:56:00;7.907692307692309;;;0.9307692307692309;;
15557;SDS011;7880;50.110;9.372;2023-11-25T04:00:47;4.607692307692307;;;1.1384615384615382;;
15557;SDS011;7880;50.110;9.372;2023-11-25T04:05:52;13.169230769230776;;;1.6999999999999995;;
15557;SDS011;7880;50.110;9.372;2023-11-25T04:11:03;2.2384615384615385;;;0.8769230769230768;;
15557;SDS011;7880;50.110;9.372;2023-11-25T04:16:00;4.392307692307691;;;1.146153846153846;;
15557;SDS011;7880;50.110;9.372;2023-11-25T04:21:02;9.23846153846154;;;1.092307692307692;;
15557;SDS011;7880;50.110;9.372;2023-11-25T04:26:06;4.707692307692307;;;1.0230769230769234;;
15557;SDS011;7880;50.110;9.372;2023-11-25T04:31:10;8.107692307692306;;;1.6999999999999995;;
15557;SDS011;7880;50.110;9.372;2023-11-25T04:36:14;5.669230769230767;;;1.2384615384615385;;
15557;SDS011;7880;50.110;9.372;2023-11-25T04:41:15;3.5615384615384618;;;1.0999999999999999;;
15557;SDS011;7880;50.110;9.372;2023-11-25T04:46:17;2.8;;;1.1384615384615382;;
15557;SDS011;7880;50.110;9.372;2023-11-25T04:51:23;3.292307692307693;;;1.1384615384615382;;
15557;SDS011;7880;50.110;9.372;2023-11-25T04:56:22;7.053846153846151;;;1.3384615384615384;;
15557;SDS011;7880;50.110;9.372;2023-11-25T05:01:25;5.6461538461538465;;;1.361538461538462;;
15557;SDS011;7880;50.110;9.372;2023-11-25T05:06:29;5.323076923076922;;;1.3384615384615384;;
15557;SDS011;7880;50.110;9.372;2023-11-25T05:11:31;3.0307692307692307;;;1.4384615384615387;;
15557;SDS011;7880;50.110;9.372;2023-11-25T05:16:35;5.723076923076921;;;1.8000000000000005;;
15557;SDS011;7880;50.110;9.372;2023-11-25T05:21:39;5.284615384615384;;;1.8000000000000005;;
15557;SDS011;7880;50.110;9.372;2023-11-25T05:26:42;10.069230769230767;;;1.6;;
15557;SDS011;7880;50.110;9.372;2023-11-25T05:31:46;6.546153846153846;;;2.0615384615384618;;
15557;SDS011;7880;50.110;9.372;2023-11-25T05:36:49;8.746153846153847;;;2.538461538461539;;
15557;SDS011;7880;50.110;9.372;2023-11-25T05:40:48;9.323076923076924;;;2.899999999999999;;
15557;SDS011;7880;50.110;9.372;2023-11-25T05:45:50;3.9153846153846166;;;2.0;;
15557;SDS011;7880;50.110;9.372;2023-11-25T05:51:01;5.561538461538462;;;2.3615384615384616;;
15557;SDS011;7880;50.110;9.372;2023-11-25T05:55:57;8.384615384615385;;;2.1000000000000005;;
15557;SDS011;7880;50.110;9.372;2023-11-25T06:01:03;4.084615384615385;;;1.5;;
15557;SDS011;7880;50.110;9.372;2023-11-25T06:06:07;4.061538461538462;;;1.7384615384615385;;
15557;SDS011;7880;50.110;9.372;2023-11-25T06:11:12;4.661538461538462;;;1.4;;
15557;SDS011;7880;50.110;9.372;2023-11-25T06:16:12;2.1000000000000005;;;1.6;;
15557;SDS011;7880;50.110;9.372;2023-11-25T06:21:27;3.2615384615384633;;;2.038461538461539;;
15557;SDS011;7880;50.110;9.372;2023-11-25T06:26:19;13.49230769230769;;;2.1999999999999997;;
15557;SDS011;7880;50.110;9.372;2023-11-25T06:31:21;10.492307692307692;;;2.1461538461538456;;
15557;SDS011;7880;50.110;9.372;2023-11-25T06:36:23;3.899999999999999;;;2.7;;
15557;SDS011;7880;50.110;9.372;2023-11-25T06:41:27;4.284615384615384;;;2.7;;
15557;SDS011;7880;50.110;9.372;2023-11-25T06:46:28;5.938461538461538;;;2.638461538461539;;
15557;SDS011;7880;50.110;9.372;2023-11-25T06:51:34;6.384615384615386;;;2.8615384615384607;;
15557;SDS011;7880;50.110;9.372;2023-11-25T06:56:38;6.161538461538461;;;2.8;;
15557;SDS011;7880;50.110;9.372;2023-11-25T07:01:42;4.923076923076922;;;2.7;;
15557;SDS011;7880;50.110;9.372;2023-11-25T07:06:43;4.1230769230769235;;;2.961538461538461;;
15557;SDS011;7880;50.110;9.372;2023-11-25T07:11:51;8.853846153846153;;;2.776923076923076;;
15557;SDS011;7880;50.110;9.372;2023-11-25T07:16:48;3.9384615384615382;;;2.899999999999999;;
15557;SDS011;7880;50.110;9.372;2023-11-25T07:21:50;7.346153846153844;;;3.2999999999999994;;
15557;SDS011;7880;50.110;9.372;2023-11-25T07:27:01;10.36923076923077;;;3.4384615384615382;;
15557;SDS011;7880;50.110;9.372;2023-11-25T07:32:06;10.900000000000004;;;3.792307692307692;;
15557;SDS011;7880;50.110;9.372;2023-11-25T07:37:07;8.869230769230768;;;3.107692307692307;;
15557;SDS011;7880;50.110;9.372;2023-11-25T07:42:05;6.161538461538461;;;3.100000000000001;;
15557;SDS011;7880;50.110;9.372;2023-11-25T07:47:11;7.584615384615388;;;3.5;;
15557;SDS011;7880;50.110;9.372;2023-11-25T07:52:15;18.86923076923077;;;7.469230769230772;;
15557;SDS011;7880;50.110;9.372;2023-11-25T07:57:17;8.961538461538463;;;5.1000000000000005;;
15557;SDS011;7880;50.110;9.372;2023-11-25T08:02:23;11.646153846153847;;;4.200000000000001;;
15557;SDS011;7880;50.110;9.372;2023-11-25T08:07:31;10.599999999999998;;;5.0;;
15557;SDS011;7880;50.110;9.372;2023-11-25T08:12:30;11.238461538461543;;;4.299999999999999;;
15557;SDS011;7880;50.110;9.372;2023-11-25T08:17:32;36.03846153846153;;;13.184615384615388;;
15557;SDS011;7880;50.110;9.372;2023-11-25T08:22:36;12.646153846153844;;;6.853846153846155;;
15557;SDS011;7880;50.110;9.372;2023-11-25T08:27:39;15.838461538461539;;;6.200000000000002;;
15557;SDS011;7880;50.110;9.372;2023-11-25T08:32:43;14.38461538461538;;;5.238461538461538;;
15557;SDS011;7880;50.110;9.372;2023-11-25T08:37:49;12.446153846153843;;;5.799999999999998;;
15557;SDS011;7880;50.110;9.372;2023-11-25T08:42:56;18.269230769230766;;;8.061538461538461;;
15557;SDS011;7880;50.110;9.372;2023-11-25T08:48:01;14.307692307692308;;;6.200000000000002;;
15557;SDS011;7880;50.110;9.372;2023-11-25T08:53:02;16.22307692307692;;;7.599999999999999;;
15557;SDS011;7880;50.110;9.372;2023-11-25T08:58:03;15.623076923076924;;;6.83846153846154;;
15557;SDS011;7880;50.110;9.372;2023-11-25T09:03:07;18.699999999999996;;;6.599999999999999;;
15557;SDS011;7880;50.110;9.372;2023-11-25T09:08:10;17.992307692307694;;;9.76153846153846;;
15557;SDS011;7880;50.110;9.372;2023-11-25T09:13:11;18.607692307692307;;;6.115384615384614;;
15557;SDS011;7880;50.110;9.372;2023-11-25T09:18:14;17.97692307692308;;;6.06153846153846;;
15557;SDS011;7880;50.110;9.372;2023-11-25T09:23:17;17.584615384615383;;;8.023076923076925;;
15557;SDS011;7880;50.110;9.372;2023-11-25T09:28:21;12.099999999999996;;;5.761538461538462;;
15557;SDS011;7880;50.110;9.372;2023-11-25T09:33:26;14.230769230769228;;;5.076923076923078;;
15557;SDS011;7880;50.110;9.372;2023-11-25T09:38:27;10.484615384615385;;;4.038461538461539;;
15557;SDS011;7880;50.110;9.372;2023-11-25T09:43:31;10.661538461538461;;;4.561538461538462;;
15557;SDS011;7880;50.110;9.372;2023-11-25T09:48:35;19.16153846153846;;;6.338461538461539;;
15557;SDS011;7880;50.110;9.372;2023-11-25T09:53:38;16.97692307692307;;;5.1000000000000005;;
15557;SDS011;7880;50.110;9.372;2023-11-25T09:58:42;10.907692307692304;;;6.361538461538459;;
15557;SDS011;7880;50.110;9.372;2023-11-25T10:03:45;14.430769230769236;;;4.8999999999999995;;
15557;SDS011;7880;50.110;9.372;2023-11-25T10:08:48;13.184615384615382;;;3.6384615384615397;;
15557;SDS011;7880;50.110;9.372;2023-11-25T10:13:52;17.992307692307694;;;3.369230769230768;;
15557;SDS011;7880;50.110;9.372;2023-11-25T10:18:56;15.692307692307688;;;3.5;;
15557;SDS011;7880;50.110;9.372;2023-11-25T10:24:06;9.684615384615384;;;2.838461538461538;;
15557;SDS011;7880;50.110;9.372;2023-11-25T10:29:03;8.284615384615382;;;2.899999999999999;;
15557;SDS011;7880;50.110;9.372;2023-11-25T10:34:10;6.284615384615383;;;2.1000000000000005;;
15557;SDS011;7880;50.110;9.372;2023-11-25T10:39:19;6.061538461538462;;;2.838461538461538;;
15557;SDS011;7880;50.110;9.372;2023-11-25T10:43:02;8.784615384615382;;;3.3307692307692305;;
15557;SDS011;7880;50.110;9.372;2023-11-25T10:48:04;8.707692307692309;;;2.5615384615384618;;
15557;SDS011;7880;50.110;9.372;2023-11-25T10:53:05;15.684615384615382;;;3.2384615384615367;;
15557;SDS011;7880;50.110;9.372;2023-11-25T10:58:12;14.038461538461537;;;4.015384615384616;;
15557;SDS011;7880;50.110;9.372;2023-11-25T11:03:16;18.815384615384612;;;6.384615384615386;;
15557;SDS011;7880;50.110;9.372;2023-11-25T11:08:19;11.746153846153847;;;4.161538461538462;;
15557;SDS011;7880;50.110;9.372;2023-11-25T11:13:22;9.784615384615384;;;3.100000000000001;;
15557;SDS011;7880;50.110;9.372;2023-11-25T11:18:36;14.592307692307692;;;3.2999999999999994;;
15557;SDS011;7880;50.110;9.372;2023-11-25T11:23:37;16.192307692307686;;;3.5;;
15557;SDS011;7880;50.110;9.372;2023-11-25T11:28:36;11.176923076923078;;;2.6538461538461537;;
15557;SDS011;7880;50.110;9.372;2023-11-25T11:33:49;12.06153846153846;;;2.638461538461539;;
15557;SDS011;7880;50.110;9.372;2023-11-25T11:38:53;16.238461538461543;;;3.399999999999999;;
15557;SDS011;7880;50.110;9.372;2023-11-25T11:44:24;22.207692307692312;;;2.8769230769230765;;
15557;SDS011;7880;50.110;9.372;2023-11-25T11:49:05;10.476923076923075;;;2.353846153846153;;
15557;SDS011;7880;50.110;9.372;2023-11-25T11:54:23;16.55384615384616;;;2.638461538461539;;
15557;SDS011;7880;50.110;9.372;2023-11-25T11:59:13;10.723076923076919;;;2.8;;
15557;SDS011;7880;50.110;9.372;2023-11-25T12:04:21;7.453846153846153;;;2.1999999999999997;;
15557;SDS011;7880;50.110;9.372;2023-11-25T12:09:23;9.446153846153846;;;3.0615384615384618;;
15557;SDS011;7880;50.110;9.372;2023-11-25T12:14:26;9.469230769230773;;;2.638461538461539;;
15557;SDS011;7880;50.110;9.372;2023-11-25T12:19:27;11.261538461538457;;;3.0;;
15557;SDS011;7880;50.110;9.372;2023-11-25T12:24:32;5.861538461538459;;;3.0;;
15557;SDS011;7880;50.110;9.372;2023-11-25T12:30:12;14.146153846153847;;;3.100000000000001;;
15557;SDS011;7880;50.110;9.372;2023-11-25T12:35:15;8.638461538461538;;;2.6000000000000005;;
15557;SDS011;7880;50.110;9.372;2023-11-25T12:40:21;8.907692307692308;;;3.100000000000001;;
15557;SDS011;7880;50.110;9.372;2023-11-25T12:45:29;14.669230769230776;;;2.899999999999999;;
15557;SDS011;7880;50.110;9.372;2023-11-25T12:50:32;10.346153846153847;;;2.8538461538461535;;
15557;SDS011;7880;50.110;9.372;2023-11-25T12:55:38;8.299999999999999;;;2.7;;
15557;SDS011;7880;50.110;9.372;2023-11-25T13:00:43;12.053846153846157;;;2.899999999999999;;
15557;SDS011;7880;50.110;9.372;2023-11-25T13:05:50;10.092307692307692;;;3.4307692307692297;;
15557;SDS011;7880;50.110;9.372;2023-11-25T13:10:52;9.061538461538463;;;2.7;;
15557;SDS011;7880;50.110;9.372;2023-11-25T13:15:57;7.261538461538462;;;3.8615384615384603;;
15557;SDS011;7880;50.110;9.372;2023-11-25T13:21:05;11.984615384615381;;;2.899999999999999;;
15557;SDS011;7880;50.110;9.372;2023-11-25T13:26:03;10.146153846153847;;;4.200000000000001;;
15557;SDS011;7880;50.110;9.372;2023-11-25T13:31:16;12.538461538461537;;;3.7999999999999994;;
15557;SDS011;7880;50.110;9.372;2023-11-25T13:36:32;7.7230769230769205;;;3.7615384615384633;;
15557;SDS011;7880;50.110;9.372;2023-11-25T13:41:24;9.400000000000002;;;4.946153846153846;;
15557;SDS011;7880;50.110;9.372;2023-11-25T13:46:37;6.63846153846154;;;4.1000000000000005;;
15557;SDS011;7880;50.110;9.372;2023-11-25T13:51:34;11.815384615384618;;;5.93076923076923;;
15557;SDS011;7880;50.110;9.372;2023-11-25T13:56:40;7.992307692307691;;;3.600000000000001;;
15557;SDS011;7880;50.110;9.372;2023-11-25T14:01:49;72.65384615384615;;;45.23076923076924;;
15557;SDS011;7880;50.110;9.372;2023-11-25T14:06:45;72.65384615384615;;;45.23076923076924;;
15557;SDS011;7880;50.110;9.372;2023-11-25T14:11:54;160.2846153846154;;;82.47692307692309;;
15557;SDS011;7880;50.110;9.372;2023-11-25T14:16:56;39.830769230769235;;;23.684615384615388;;
15557;SDS011;7880;50.110;9.372;2023-11-25T14:22:01;72.13076923076925;;;37.13076923076924;;
15557;SDS011;7880;50.110;9.372;2023-11-25T14:27:07;13.023076923076925;;;8.5;;
15557;SDS011;7880;50.110;9.372;2023-11-25T14:32:21;9.123076923076923;;;5.492307692307694;;
15557;SDS011;7880;50.110;9.372;2023-11-25T14:37:29;8.299999999999999;;;5.6000000000000005;;
15557;SDS011;7880;50.110;9.372;2023-11-25T14:42:25;11.469230769230773;;;4.923076923076922;;
15557;SDS011;7880;50.110;9.372;2023-11-25T14:47:29;13.407692307692304;;;5.56923076923077;;
15557;SDS011;7880;50.110;9.372;2023-11-25T14:52:40;9.584615384615388;;;5.538461538461537;;
15557;SDS011;7880;50.110;9.372;2023-11-25T14:57:36;6.246153846153844;;;4.1000000000000005;;
15557;SDS011;7880;50.110;9.372;2023-11-25T15:02:43;9.76153846153846;;;6.0;;
15557;SDS011;7880;50.110;9.372;2023-11-25T15:07:49;15.56153846153846;;;6.438461538461538;;
15557;SDS011;7880;50.110;9.372;2023-11-25T15:13:27;11.984615384615388;;;5.838461538461539;;
15557;SDS011;7880;50.110;9.372;2023-11-25T15:18:08;11.592307692307692;;;6.0;;
15557;SDS011;7880;50.110;9.372;2023-11-25T15:23:27;14.761538461538455;;;8.900000000000002;;
15557;SDS011;7880;50.110;9.372;2023-11-25T15:28:40;14.961538461538463;;;6.138461538461541;;
15557;SDS011;7880;50.110;9.372;2023-11-25T15:33:21;8.961538461538463;;;5.799999999999998;;
15557;SDS011;7880;50.110;9.372;2023-11-25T15:38:26;11.592307692307688;;;5.538461538461538;;
15557;SDS011;7880;50.110;9.372;2023-11-25T15:43:31;7.507692307692306;;;5.0;;
15557;SDS011;7880;50.110;9.372;2023-11-25T15:47:08;13.176923076923078;;;7.038461538461538;;
15557;SDS011;7880;50.110;9.372;2023-11-25T15:52:12;10.646153846153847;;;5.9;;
15557;SDS011;7880;50.110;9.372;2023-11-25T15:57:58;18.184615384615388;;;6.0;;
15557;SDS011;7880;50.110;9.372;2023-11-25T16:03:08;13.20769230769231;;;5.299999999999999;;
15557;SDS011;7880;50.110;9.372;2023-11-25T16:08:13;11.823076923076922;;;5.299999999999999;;
15557;SDS011;7880;50.110;9.372;2023-11-25T16:13:27;11.484615384615385;;;4.5;;
15557;SDS011;7880;50.110;9.372;2023-11-25T16:18:33;6.238461538461538;;;3.7999999999999994;;
15557;SDS011;7880;50.110;9.372;2023-11-25T16:23:36;7.123076923076923;;;4.3769230769230765;;
15557;SDS011;7880;50.110;9.372;2023-11-25T16:28:37;8.461538461538465;;;4.8999999999999995;;
15557;SDS011;7880;50.110;9.372;2023-11-25T16:33:42;12.846153846153843;;;4.938461538461538;;
15557;SDS011;7880;50.110;9.372;2023-11-25T16:38:45;9.099999999999998;;;4.361538461538461;;
15557;SDS011;7880;50.110;9.372;2023-11-25T16:43:50;11.307692307692308;;;4.3999999999999995;;
15557;SDS011;7880;50.110;9.372;2023-11-25T16:49:16;9.453846153846156;;;3.615384615384616;;
15557;SDS011;7880;50.110;9.372;2023-11-25T16:54:34;6.338461538461538;;;4.299999999999999;;
15557;SDS011;7880;50.110;9.372;2023-11-25T17:00:16;10.230769230769228;;;4.538461538461539;;
15557;SDS011;7880;50.110;9.372;2023-11-25T17:05:08;6.66153846153846;;;4.538461538461539;;
15557;SDS011;7880;50.110;9.372;2023-11-25T17:10:15;8.86153846153846;;;4.700000000000001;;
15557;SDS011;7880;50.110;9.372;2023-11-25T17:15:20;8.461538461538465;;;4.93076923076923;;
15557;SDS011;7880;50.110;9.372;2023-11-25T17:20:26;8.36153846153846;;;4.6000000000000005;;
15557;SDS011;7880;50.110;9.372;2023-11-25T17:25:26;15.984615384615388;;;5.538461538461537;;
15557;SDS011;7880;50.110;9.372;2023-11-25T17:30:35;15.361538461538467;;;5.9;;
15557;SDS011;7880;50.110;9.372;2023-11-25T17:35:33;11.307692307692308;;;5.0;;
15557;SDS011;7880;50.110;9.372;2023-11-25T17:40:35;7.615384615384614;;;5.5;;
15557;SDS011;7880;50.110;9.372;2023-11-25T17:45:56;9.43846153846154;;;5.176923076923076;;
15557;SDS011;7880;50.110;9.372;2023-11-25T17:50:43;9.43846153846154;;;5.176923076923076;;
15557;SDS011;7880;50.110;9.372;2023-11-25T17:56:00;6.953846153846156;;;4.700000000000001;;
15557;SDS011;7880;50.110;9.372;2023-11-25T18:00:57;7.823076923076921;;;5.223076923076925;;
15557;SDS011;7880;50.110;9.372;2023-11-25T18:06:24;11.146153846153847;;;5.0;;
15557;SDS011;7880;50.110;9.372;2023-11-25T18:11:38;9.776923076923078;;;4.338461538461538;;
15557;SDS011;7880;50.110;9.372;2023-11-25T18:16:45;8.36923076923077;;;4.8;;
15557;SDS011;7880;50.110;9.372;2023-11-25T18:21:51;7.5;;;4.238461538461538;;
15557;SDS011;7880;50.110;9.372;2023-11-25T18:26:49;6.561538461538462;;;4.038461538461539;;
15557;SDS011;7880;50.110;9.372;2023-11-25T18:32:05;14.084615384615383;;;4.869230769230769;;
15557;SDS011;7880;50.110;9.372;2023-11-25T18:36:56;12.961538461538463;;;7.700000000000002;;
15557;SDS011;7880;50.110;9.372;2023-11-25T18:42:03;9.430769230769231;;;6.93076923076923;;
15557;SDS011;7880;50.110;9.372;2023-11-25T18:47:21;15.10769230769231;;;6.599999999999999;;
15557;SDS011;7880;50.110;9.372;2023-11-25T18:52:12;12.276923076923081;;;9.138461538461538;;
15557;SDS011;7880;50.110;9.372;2023-11-25T18:57:43;7.446153846153848;;;4.861538461538461;;
15557;SDS011;7880;50.110;9.372;2023-11-25T19:02:31;13.300000000000002;;;9.93846153846154;;
15557;SDS011;7880;50.110;9.372;2023-11-25T19:07:46;7.8076923076923075;;;4.5;;
15557;SDS011;7880;50.110;9.372;2023-11-25T19:12:53;7.469230769230771;;;5.200000000000001;;
15557;SDS011;7880;50.110;9.372;2023-11-25T19:17:52;8.746153846153847;;;5.200000000000001;;
15557;SDS011;7880;50.110;9.372;2023-11-25T19:22:57;9.5;;;4.707692307692307;;
15557;SDS011;7880;50.110;9.372;2023-11-25T19:28:02;9.584615384615388;;;5.661538461538461;;
15557;SDS011;7880;50.110;9.372;2023-11-25T19:33:04;11.107692307692307;;;4.3999999999999995;;
15557;SDS011;7880;50.110;9.372;2023-11-25T19:38:11;7.707692307692307;;;3.600000000000001;;
15557;SDS011;7880;50.110;9.372;2023-11-25T19:43:11;6.446153846153847;;;4.538461538461539;;
15557;SDS011;7880;50.110;9.372;2023-11-25T19:48:18;9.076923076923078;;;5.176923076923076;;
15557;SDS011;7880;50.110;9.372;2023-11-25T19:53:44;6.4615384615384635;;;3.600000000000001;;
15557;SDS011;7880;50.110;9.372;2023-11-25T19:58:51;8.12307692307692;;;3.7307692307692313;;
15557;SDS011;7880;50.110;9.372;2023-11-25T20:03:39;6.13846153846154;;;2.899999999999999;;
15557;SDS011;7880;50.110;9.372;2023-11-25T20:08:42;12.5;;;3.5;;
15557;SDS011;7880;50.110;9.372;2023-11-25T20:13:54;6.761538461538462;;;3.7000000000000006;;
15557;SDS011;7880;50.110;9.372;2023-11-25T20:18:51;5.5;;;4.1000000000000005;;
15557;SDS011;7880;50.110;9.372;2023-11-25T20:23:56;8.623076923076924;;;3.838461538461538;;
15557;SDS011;7880;50.110;9.372;2023-11-25T20:28:59;10.023076923076925;;;5.1000000000000005;;
15557;SDS011;7880;50.110;9.372;2023-11-25T20:34:07;5.361538461538459;;;3.0;;
15557;SDS011;7880;50.110;9.372;2023-11-25T20:39:14;8.023076923076925;;;3.7999999999999994;;
15557;SDS011;7880;50.110;9.372;2023-11-25T20:44:17;9.946153846153845;;;3.661538461538462;;
15557;SDS011;7880;50.110;9.372;2023-11-25T20:49:13;5.084615384615385;;;2.2615384615384615;;
15557;SDS011;7880;50.110;9.372;2023-11-25T20:53:21;6.900000000000001;;;3.0769230769230775;;
15557;SDS011;7880;50.110;9.372;2023-11-25T20:58:24;3.276923076923076;;;2.1999999999999997;;
15557;SDS011;7880;50.110;9.372;2023-11-25T21:03:27;10.453846153846152;;;5.438461538461538;;
15557;SDS011;7880;50.110;9.372;2023-11-25T21:08:33;9.538461538461537;;;5.238461538461538;;
15557;SDS011;7880;50.110;9.372;2023-11-25T21:13:36;4.584615384615384;;;3.0615384615384618;;
15557;SDS011;7880;50.110;9.372;2023-11-25T21:18:40;6.938461538461538;;;2.7384615384615376;;
15557;SDS011;7880;50.110;9.372;2023-11-25T21:23:42;5.299999999999999;;;2.5;;
15557;SDS011;7880;50.110;9.372;2023-11-25T21:28:46;7.0384615384615365;;;3.100000000000001;;
15557;SDS011;7880;50.110;9.372;2023-11-25T21:33:49;16.93076923076923;;;3.2;;
15557;SDS011;7880;50.110;9.372;2023-11-25T21:38:53;6.346153846153844;;;3.600000000000001;;
15557;SDS011;7880;50.110;9.372;2023-11-25T21:43:57;12.199999999999998;;;6.284615384615386;;
15557;SDS011;7880;50.110;9.372;2023-11-25T21:49:00;9.099999999999998;;;5.9;;
15557;SDS011;7880;50.110;9.372;2023-11-25T21:54:03;14.361538461538467;;;6.700000000000002;;
15557;SDS011;7880;50.110;9.372;2023-11-25T21:59:08;15.976923076923075;;;6.638461538461541;;
15557;SDS011;7880;50.110;9.372;2023-11-25T22:04:12;7.16153846153846;;;4.238461538461538;;
15557;SDS011;7880;50.110;9.372;2023-11-25T22:09:25;5.1230769230769235;;;3.2;;
15557;SDS011;7880;50.110;9.372;2023-11-25T22:14:18;12.830769230769231;;;4.523076923076923;;
15557;SDS011;7880;50.110;9.372;2023-11-25T22:19:26;3.8615384615384603;;;2.5615384615384618;;
15557;SDS011;7880;50.110;9.372;2023-11-25T22:24:27;8.884615384615385;;;5.200000000000001;;
15557;SDS011;7880;50.110;9.372;2023-11-25T22:29:28;7.669230769230766;;;4.2153846153846155;;
15557;SDS011;7880;50.110;9.372;2023-11-25T22:34:40;53.18461538461538;;;25.853846153846145;;
15557;SDS011;7880;50.110;9.372;2023-11-25T22:39:44;10.976923076923079;;;5.299999999999999;;